Time;durP1;ratioP1;P1;durP2;ratioP2;P2;SDS_P1;SDS_P2;PMS_P1;PMS_P2;Temp;Humidity;BMP_temperature;BMP_pressure;BME280_temperature;BME280_humidity;BME280_pressure;Samples;Min_cycle;Max_cycle;Signal;HPM_P1;HPM_P2
2023/03/09 00:01:06;;;;;;;16.13;13.40;;;;;;;;;;5052120;28;20246;-70
2023/03/09 00:03:31;;;;;;;14.83;13.13;;;;;;;;;;5034354;28;20227;-70
2023/03/09 00:05:57;;;;;;;14.90;12.93;;;;;;;;;;5035587;28;20211;-70
2023/03/09 00:08:22;;;;;;;15.13;12.73;;;;;;;;;;5032136;28;20577;-70
2023/03/09 00:10:51;;;;;;;15.23;13.00;;;;;;;;;;5032460;28;20216;-70
2023/03/09 00:13:17;;;;;;;18.87;15.63;;;;;;;;;;5031160;28;20212;-70
2023/03/09 00:15:43;;;;;;;34.73;21.00;;;;;;;;;;5032439;28;20212;-70
2023/03/09 00:18:09;;;;;;;42.53;25.70;;;;;;;;;;5031542;28;20297;-70
2023/03/09 00:20:34;;;;;;;34.57;20.47;;;;;;;;;;5031927;28;20244;-70
2023/03/09 00:23:08;;;;;;;39.47;24.67;;;;;;;;;;5032191;28;20231;-70
2023/03/09 00:25:33;;;;;;;19.07;15.00;;;;;;;;;;5031700;28;20216;-70
2023/03/09 00:27:58;;;;;;;17.40;14.03;;;;;;;;;;5031549;28;20680;-70
2023/03/09 00:30:24;;;;;;;18.87;15.57;;;;;;;;;;5024456;28;20220;-70
2023/03/09 00:32:49;;;;;;;39.20;24.03;;;;;;;;;;5019026;28;20687;-70
2023/03/09 00:35:14;;;;;;;18.50;14.80;;;;;;;;;;5049422;28;20219;-70
2023/03/09 00:37:39;;;;;;;27.23;19.63;;;;;;;;;;5034815;28;20754;-70
2023/03/09 00:40:09;;;;;;;27.10;18.57;;;;;;;;;;5031373;28;20224;-69
2023/03/09 00:42:35;;;;;;;26.23;18.67;;;;;;;;;;5031478;28;20281;-70
2023/03/09 00:45:00;;;;;;;21.23;16.10;;;;;;;;;;5047424;28;20584;-70
2023/03/09 00:47:26;;;;;;;24.17;17.90;;;;;;;;;;5031590;28;20215;-70
2023/03/09 00:49:51;;;;;;;18.67;14.60;;;;;;;;;;5031865;28;20223;-70
2023/03/09 00:52:17;;;;;;;17.37;13.93;;;;;;;;;;5031715;28;20208;-70
2023/03/09 00:54:42;;;;;;;23.63;16.63;;;;;;;;;;5031873;28;20216;-71
2023/03/09 00:57:08;;;;;;;17.47;14.43;;;;;;;;;;5031091;28;20216;-70
2023/03/09 00:59:33;;;;;;;18.43;14.23;;;;;;;;;;5031930;28;20212;-70
2023/03/09 01:01:59;;;;;;;18.13;14.30;;;;;;;;;;5030921;28;20215;-70
2023/03/09 01:04:24;;;;;;;15.10;12.53;;;;;;;;;;5031462;28;20215;-70
2023/03/09 01:06:51;;;;;;;16.17;13.23;;;;;;;;;;5031890;28;20216;-70
2023/03/09 01:09:16;;;;;;;16.97;13.33;;;;;;;;;;5029581;28;20274;-70
2023/03/09 01:11:41;;;;;;;16.87;13.10;;;;;;;;;;5031870;28;20216;-70
2023/03/09 01:14:07;;;;;;;17.50;13.67;;;;;;;;;;5031305;28;20223;-70
2023/03/09 01:16:32;;;;;;;16.27;13.17;;;;;;;;;;5031221;28;20561;-70
2023/03/09 01:18:57;;;;;;;29.30;18.53;;;;;;;;;;5031859;28;20227;-70
2023/03/09 01:21:22;;;;;;;18.27;14.07;;;;;;;;;;5031210;28;20582;-71
2023/03/09 01:23:48;;;;;;;19.60;14.67;;;;;;;;;;5031292;28;20323;-70
2023/03/09 01:26:13;;;;;;;16.80;14.07;;;;;;;;;;5031232;28;20286;-70
2023/03/09 01:28:38;;;;;;;17.27;13.67;;;;;;;;;;5031639;28;20293;-70
2023/03/09 01:31:10;;;;;;;17.00;13.97;;;;;;;;;;5033692;28;20216;-70
2023/03/09 01:33:35;;;;;;;16.17;13.10;;;;;;;;;;5035254;28;20717;-70
2023/03/09 01:36:03;;;;;;;16.67;13.40;;;;;;;;;;5034742;28;20216;-70
2023/03/09 01:38:28;;;;;;;15.90;12.90;;;;;;;;;;5034773;28;20266;-71
2023/03/09 01:40:53;;;;;;;16.23;12.97;;;;;;;;;;5035445;28;20564;-71
2023/03/09 01:43:20;;;;;;;16.47;12.77;;;;;;;;;;5034222;28;20224;-70
2023/03/09 01:45:46;;;;;;;16.17;12.63;;;;;;;;;;5034381;28;20212;-71
2023/03/09 01:48:11;;;;;;;15.07;12.43;;;;;;;;;;5034768;28;20274;-70
2023/03/09 01:50:36;;;;;;;16.00;13.37;;;;;;;;;;5034768;28;20215;-71
2023/03/09 01:53:04;;;;;;;17.63;14.83;;;;;;;;;;5033960;28;20219;-71
2023/03/09 01:55:30;;;;;;;16.13;13.27;;;;;;;;;;5033783;28;20239;-71
2023/03/09 01:57:58;;;;;;;16.00;13.30;;;;;;;;;;5034490;28;20220;-71
2023/03/09 02:00:24;;;;;;;17.87;13.80;;;;;;;;;;5033630;28;20215;-71
2023/03/09 02:02:51;;;;;;;15.77;13.13;;;;;;;;;;5034629;28;20231;-71
2023/03/09 02:05:20;;;;;;;16.40;12.93;;;;;;;;;;5033538;28;20247;-72
2023/03/09 02:07:45;;;;;;;17.33;13.97;;;;;;;;;;5033546;28;20246;-71
2023/03/09 02:10:15;;;;;;;16.50;13.17;;;;;;;;;;5034239;28;20235;-71
2023/03/09 02:12:40;;;;;;;17.00;13.70;;;;;;;;;;5032647;28;20298;-72
2023/03/09 02:15:06;;;;;;;16.33;13.27;;;;;;;;;;5033772;28;20303;-70
2023/03/09 02:17:31;;;;;;;15.10;12.80;;;;;;;;;;5034344;28;20216;-71
2023/03/09 02:20:04;;;;;;;15.97;13.60;;;;;;;;;;5034057;28;20273;-72
2023/03/09 02:22:31;;;;;;;16.27;13.57;;;;;;;;;;5034025;28;20242;-72
2023/03/09 02:25:12;;;;;;;17.40;13.40;;;;;;;;;;5034207;28;20239;-72
2023/03/09 02:27:38;;;;;;;16.30;13.03;;;;;;;;;;5033372;28;20588;-72
2023/03/09 02:30:03;;;;;;;16.87;13.83;;;;;;;;;;5034030;28;20224;-71
2023/03/09 02:32:29;;;;;;;17.07;13.83;;;;;;;;;;5033778;28;20638;-72
2023/03/09 02:34:55;;;;;;;17.33;13.90;;;;;;;;;;5033620;28;20739;-72
2023/03/09 02:37:21;;;;;;;17.17;13.67;;;;;;;;;;5033906;28;20307;-72
2023/03/09 02:39:47;;;;;;;17.17;13.77;;;;;;;;;;5033832;28;20243;-72
2023/03/09 02:42:12;;;;;;;18.17;14.50;;;;;;;;;;5033065;28;20259;-72
2023/03/09 02:44:37;;;;;;;18.07;14.37;;;;;;;;;;5033874;28;20694;-72
2023/03/09 02:47:06;;;;;;;18.67;14.23;;;;;;;;;;5033222;28;20299;-72
2023/03/09 02:49:31;;;;;;;18.33;14.10;;;;;;;;;;5033426;28;20564;-72
2023/03/09 02:51:56;;;;;;;17.80;14.87;;;;;;;;;;5033937;28;20250;-72
2023/03/09 02:54:22;;;;;;;17.87;14.37;;;;;;;;;;5033187;28;20219;-72
2023/03/09 02:56:47;;;;;;;17.27;13.93;;;;;;;;;;5033322;28;20219;-72
2023/03/09 02:59:12;;;;;;;16.93;13.97;;;;;;;;;;5033221;28;20212;-72
2023/03/09 03:01:37;;;;;;;16.80;13.87;;;;;;;;;;5032885;28;20200;-72
2023/03/09 03:04:03;;;;;;;17.80;13.87;;;;;;;;;;5033114;28;20579;-72
2023/03/09 03:06:28;;;;;;;16.57;13.60;;;;;;;;;;5033341;28;20212;-72
2023/03/09 03:08:53;;;;;;;15.87;13.13;;;;;;;;;;5033089;28;20273;-72
2023/03/09 03:11:18;;;;;;;15.57;12.97;;;;;;;;;;5033150;28;20227;-72
2023/03/09 03:13:44;;;;;;;15.33;12.57;;;;;;;;;;5033177;28;21093;-72
2023/03/09 03:16:09;;;;;;;16.47;12.97;;;;;;;;;;5032423;28;20211;-72
2023/03/09 03:18:34;;;;;;;17.57;13.40;;;;;;;;;;5033216;28;20215;-72
2023/03/09 03:21:00;;;;;;;16.23;13.20;;;;;;;;;;5033201;28;20220;-72
2023/03/09 03:23:25;;;;;;;14.90;12.47;;;;;;;;;;5032275;28;20694;-72
2023/03/09 03:25:50;;;;;;;14.60;12.63;;;;;;;;;;5032945;28;20208;-72
2023/03/09 03:28:15;;;;;;;15.87;13.07;;;;;;;;;;5032612;28;20199;-72
2023/03/09 03:30:41;;;;;;;16.20;12.97;;;;;;;;;;5032555;28;20709;-72
2023/03/09 03:33:06;;;;;;;16.57;13.00;;;;;;;;;;5032444;28;20312;-71
2023/03/09 03:35:31;;;;;;;16.43;13.10;;;;;;;;;;5032908;28;20211;-72
2023/03/09 03:37:56;;;;;;;15.73;12.27;;;;;;;;;;5032534;28;20207;-73
2023/03/09 03:40:22;;;;;;;14.87;12.33;;;;;;;;;;5032477;28;20655;-72
2023/03/09 03:42:48;;;;;;;14.30;12.30;;;;;;;;;;5032846;28;20219;-72
2023/03/09 03:45:13;;;;;;;16.07;13.13;;;;;;;;;;5031798;28;20208;-72
2023/03/09 03:47:38;;;;;;;15.40;12.97;;;;;;;;;;5032823;28;20220;-72
2023/03/09 03:50:04;;;;;;;14.50;12.07;;;;;;;;;;5032150;28;20211;-72
2023/03/09 03:52:30;;;;;;;15.73;12.63;;;;;;;;;;5030642;28;20234;-72
2023/03/09 03:54:55;;;;;;;15.20;12.97;;;;;;;;;;5031494;28;20674;-72
2023/03/09 03:57:22;;;;;;;15.47;12.60;;;;;;;;;;5031861;28;20678;-72
2023/03/09 03:59:48;;;;;;;16.83;13.70;;;;;;;;;;5032095;28;20214;-72
2023/03/09 04:02:13;;;;;;;17.83;14.03;;;;;;;;;;5032106;28;20224;-72
2023/03/09 04:04:38;;;;;;;15.87;12.77;;;;;;;;;;5032282;28;20219;-72
2023/03/09 04:07:03;;;;;;;15.63;13.40;;;;;;;;;;5031580;28;20265;-72
2023/03/09 04:09:30;;;;;;;15.27;12.83;;;;;;;;;;5032502;28;20204;-72
2023/03/09 04:11:55;;;;;;;16.70;13.77;;;;;;;;;;5031776;28;20641;-73
2023/03/09 04:14:20;;;;;;;15.87;12.97;;;;;;;;;;5032024;28;20216;-71
2023/03/09 04:16:46;;;;;;;15.37;13.13;;;;;;;;;;5032090;28;20219;-72
2023/03/09 04:19:11;;;;;;;15.60;12.40;;;;;;;;;;5011862;28;20223;-72
2023/03/09 04:21:36;;;;;;;16.77;13.77;;;;;;;;;;5018131;28;20642;-72
2023/03/09 04:24:02;;;;;;;18.03;14.40;;;;;;;;;;4997330;28;20294;-71
2023/03/09 04:26:27;;;;;;;16.10;13.10;;;;;;;;;;4998524;28;20226;-72
2023/03/09 04:28:52;;;;;;;16.63;13.37;;;;;;;;;;5014044;28;20219;-72
2023/03/09 04:31:17;;;;;;;16.43;13.77;;;;;;;;;;5018565;28;20246;-72
2023/03/09 04:33:43;;;;;;;20.00;14.50;;;;;;;;;;5013930;28;20236;-72
2023/03/09 04:36:09;;;;;;;16.40;14.03;;;;;;;;;;5002326;28;20216;-71
2023/03/09 04:38:34;;;;;;;17.50;14.03;;;;;;;;;;5021574;28;20243;-72
2023/03/09 04:41:00;;;;;;;17.23;13.90;;;;;;;;;;5012891;28;20637;-72
2023/03/09 04:43:25;;;;;;;16.87;14.23;;;;;;;;;;5002499;28;20232;-72
2023/03/09 04:45:50;;;;;;;17.27;14.00;;;;;;;;;;5000131;28;20216;-72
2023/03/09 04:48:16;;;;;;;18.40;14.03;;;;;;;;;;4994784;28;20770;-72
2023/03/09 04:50:41;;;;;;;16.63;13.17;;;;;;;;;;4994707;28;20220;-72
2023/03/09 04:53:06;;;;;;;15.73;13.23;;;;;;;;;;5008672;28;20223;-71
2023/03/09 04:55:33;;;;;;;18.03;13.90;;;;;;;;;;5021192;28;20314;-72
2023/03/09 04:57:58;;;;;;;17.50;13.53;;;;;;;;;;5021994;28;20214;-72
2023/03/09 05:00:24;;;;;;;17.03;13.90;;;;;;;;;;5021488;28;20220;-72
2023/03/09 05:02:49;;;;;;;17.43;14.43;;;;;;;;;;5020325;28;20223;-72
2023/03/09 05:05:16;;;;;;;16.87;13.70;;;;;;;;;;5003940;28;20227;-72
2023/03/09 05:07:41;;;;;;;16.20;13.40;;;;;;;;;;5024890;28;20216;-72
2023/03/09 05:10:07;;;;;;;16.97;13.73;;;;;;;;;;5016805;28;20211;-72
2023/03/09 05:12:32;;;;;;;15.83;13.37;;;;;;;;;;5017335;28;20666;-72
2023/03/09 05:14:58;;;;;;;17.37;13.17;;;;;;;;;;5017457;28;20290;-72
2023/03/09 05:17:23;;;;;;;17.50;14.03;;;;;;;;;;5023410;28;20220;-72
2023/03/09 05:19:49;;;;;;;16.87;13.83;;;;;;;;;;5025497;28;20277;-72
2023/03/09 05:22:14;;;;;;;18.33;14.97;;;;;;;;;;5024320;28;20259;-72
2023/03/09 05:24:39;;;;;;;14.40;12.67;;;;;;;;;;5025541;28;20706;-73
2023/03/09 05:27:05;;;;;;;15.77;12.87;;;;;;;;;;5023060;28;20298;-72
2023/03/09 05:29:30;;;;;;;15.47;12.87;;;;;;;;;;5024964;28;20322;-73
2023/03/09 05:31:55;;;;;;;15.73;13.27;;;;;;;;;;5020770;28;20340;-72
2023/03/09 05:34:20;;;;;;;16.53;13.60;;;;;;;;;;5004064;28;20740;-72
2023/03/09 05:36:46;;;;;;;16.07;13.37;;;;;;;;;;4997893;28;20758;-72
2023/03/09 05:39:11;;;;;;;15.87;13.17;;;;;;;;;;5001669;28;20224;-72
2023/03/09 05:41:37;;;;;;;17.13;14.00;;;;;;;;;;5005787;28;20204;-72
2023/03/09 05:44:03;;;;;;;16.63;13.70;;;;;;;;;;5004452;28;20590;-72
2023/03/09 05:46:29;;;;;;;17.50;14.23;;;;;;;;;;5005846;28;20691;-72
2023/03/09 05:48:54;;;;;;;15.70;13.30;;;;;;;;;;5005233;28;20221;-72
2023/03/09 05:51:19;;;;;;;16.43;14.03;;;;;;;;;;5004828;28;20216;-72
2023/03/09 05:53:44;;;;;;;15.27;12.53;;;;;;;;;;5003445;28;20216;-72
2023/03/09 05:56:10;;;;;;;14.07;11.60;;;;;;;;;;4997104;28;20224;-71
2023/03/09 05:58:35;;;;;;;16.40;12.83;;;;;;;;;;4995879;28;20675;-72
2023/03/09 06:01:01;;;;;;;14.73;12.63;;;;;;;;;;4998853;28;20243;-71
2023/03/09 06:03:26;;;;;;;14.87;12.90;;;;;;;;;;5005285;28;20786;-73
2023/03/09 06:05:58;;;;;;;14.77;12.60;;;;;;;;;;5004606;28;20221;-73
2023/03/09 06:08:24;;;;;;;15.47;12.43;;;;;;;;;;5023966;28;20262;-72
2023/03/09 06:10:49;;;;;;;14.73;12.53;;;;;;;;;;5024573;28;20531;-72
2023/03/09 06:13:14;;;;;;;15.70;13.20;;;;;;;;;;5023661;28;20246;-72
2023/03/09 06:15:41;;;;;;;14.13;12.13;;;;;;;;;;5024289;28;20289;-73
2023/03/09 06:18:06;;;;;;;14.07;11.67;;;;;;;;;;5016280;28;20223;-72
2023/03/09 06:20:32;;;;;;;14.37;12.00;;;;;;;;;;4997931;28;20204;-72
2023/03/09 06:22:57;;;;;;;16.20;12.77;;;;;;;;;;5016383;28;20265;-73
2023/03/09 06:25:22;;;;;;;13.97;11.73;;;;;;;;;;5022869;28;20307;-72
2023/03/09 06:27:47;;;;;;;15.17;12.60;;;;;;;;;;5022517;28;20790;-73
2023/03/09 06:30:13;;;;;;;14.53;12.23;;;;;;;;;;5023412;28;20215;-72
2023/03/09 06:32:38;;;;;;;14.97;12.37;;;;;;;;;;5023633;28;20231;-71
2023/03/09 06:35:04;;;;;;;14.27;11.87;;;;;;;;;;5005352;28;20312;-70
2023/03/09 06:37:29;;;;;;;16.10;14.50;;;;;;;;;;5004650;28;20484;-73
2023/03/09 06:39:54;;;;;;;14.37;12.17;;;;;;;;;;5013645;28;20416;-74
2023/03/09 06:42:19;;;;;;;14.80;12.63;;;;;;;;;;4995876;28;20819;-73
2023/03/09 06:44:45;;;;;;;14.47;12.37;;;;;;;;;;5009867;28;20213;-74
2023/03/09 06:47:10;;;;;;;14.90;12.50;;;;;;;;;;5001010;28;20216;-73
2023/03/09 06:49:36;;;;;;;14.47;12.23;;;;;;;;;;5004741;28;20679;-74
2023/03/09 06:52:01;;;;;;;14.37;12.03;;;;;;;;;;5003394;28;20244;-72
2023/03/09 06:54:26;;;;;;;15.13;11.67;;;;;;;;;;5004383;28;20224;-73
2023/03/09 06:56:52;;;;;;;13.23;10.93;;;;;;;;;;5004404;28;20275;-74
2023/03/09 06:59:17;;;;;;;13.30;11.77;;;;;;;;;;5003931;28;21081;-73
2023/03/09 07:01:42;;;;;;;14.47;11.37;;;;;;;;;;5020203;28;20215;-74
2023/03/09 07:04:08;;;;;;;14.20;12.07;;;;;;;;;;5002345;28;20704;-73
2023/03/09 07:06:33;;;;;;;14.87;12.43;;;;;;;;;;4995545;28;20251;-73
2023/03/09 07:08:59;;;;;;;14.73;11.97;;;;;;;;;;4998310;28;20213;-73
2023/03/09 07:11:24;;;;;;;14.60;12.40;;;;;;;;;;5003466;28;20213;-73
2023/03/09 07:13:49;;;;;;;14.93;12.07;;;;;;;;;;5004170;28;20682;-73
2023/03/09 07:16:14;;;;;;;15.83;12.60;;;;;;;;;;5003235;28;20581;-74
2023/03/09 07:18:40;;;;;;;15.40;12.63;;;;;;;;;;5003743;28;20691;-74
2023/03/09 07:21:05;;;;;;;15.13;12.27;;;;;;;;;;5003381;28;20223;-70
2023/03/09 07:23:31;;;;;;;14.70;12.13;;;;;;;;;;5003234;28;20224;-73
2023/03/09 07:25:59;;;;;;;14.57;11.97;;;;;;;;;;4999051;28;20301;-74
2023/03/09 07:28:24;;;;;;;13.87;12.07;;;;;;;;;;4997624;28;20536;-72
2023/03/09 07:30:50;;;;;;;13.57;11.83;;;;;;;;;;4996386;28;20680;-74
2023/03/09 07:33:15;;;;;;;13.80;11.57;;;;;;;;;;5003117;28;20236;-74
2023/03/09 07:35:41;;;;;;;14.13;12.03;;;;;;;;;;5022328;28;20641;-74
2023/03/09 07:38:06;;;;;;;13.87;12.03;;;;;;;;;;5008942;28;20259;-73
2023/03/09 07:40:32;;;;;;;14.03;11.90;;;;;;;;;;5003496;28;20243;-74
2023/03/09 07:42:57;;;;;;;13.40;11.90;;;;;;;;;;5003538;28;20220;-74
2023/03/09 07:45:22;;;;;;;14.43;12.10;;;;;;;;;;5003012;28;20232;-73
2023/03/09 07:47:48;;;;;;;15.00;13.53;;;;;;;;;;5011800;28;20631;-71
2023/03/09 07:50:13;;;;;;;14.67;13.07;;;;;;;;;;5026357;28;20717;-70
2023/03/09 07:52:38;;;;;;;13.63;12.00;;;;;;;;;;5045451;28;20235;-70
2023/03/09 07:55:04;;;;;;;14.67;12.07;;;;;;;;;;5052061;28;20223;-73
2023/03/09 07:57:31;;;;;;;14.53;12.13;;;;;;;;;;5052005;28;20237;-70
2023/03/09 07:59:56;;;;;;;15.27;12.53;;;;;;;;;;5051940;28;20207;-71
2023/03/09 08:02:21;;;;;;;16.50;13.23;;;;;;;;;;5051065;28;20677;-74
2023/03/09 08:04:46;;;;;;;14.57;12.97;;;;;;;;;;5031834;28;20245;-72
2023/03/09 08:07:12;;;;;;;14.00;12.50;;;;;;;;;;5031603;28;20218;-70
2023/03/09 08:09:37;;;;;;;15.33;12.93;;;;;;;;;;5032260;28;20683;-71
2023/03/09 08:12:03;;;;;;;14.50;12.00;;;;;;;;;;5031748;28;20577;-71
2023/03/09 08:14:28;;;;;;;15.13;12.73;;;;;;;;;;5052464;28;20219;-71
2023/03/09 08:16:53;;;;;;;15.83;13.87;;;;;;;;;;5052006;28;20211;-71
2023/03/09 08:19:21;;;;;;;15.03;13.13;;;;;;;;;;5050316;28;20219;-71
2023/03/09 08:21:46;;;;;;;17.40;12.90;;;;;;;;;;5051741;28;20219;-71
2023/03/09 08:24:12;;;;;;;15.77;13.80;;;;;;;;;;5051227;28;20656;-71
2023/03/09 08:26:37;;;;;;;15.70;13.07;;;;;;;;;;5051568;28;20261;-70
2023/03/09 08:29:03;;;;;;;16.00;13.73;;;;;;;;;;5051680;28;20284;-70
2023/03/09 08:31:28;;;;;;;16.27;13.57;;;;;;;;;;5054347;28;20222;-70
2023/03/09 08:33:53;;;;;;;20.53;16.70;;;;;;;;;;5054854;28;20285;-71
2023/03/09 08:36:19;;;;;;;21.10;16.87;;;;;;;;;;5030537;28;20588;-70
2023/03/09 08:38:45;;;;;;;16.57;14.33;;;;;;;;;;5033556;28;20426;-71
2023/03/09 08:41:10;;;;;;;15.70;13.47;;;;;;;;;;5035191;28;20298;-70
2023/03/09 08:43:36;;;;;;;16.83;14.07;;;;;;;;;;5036136;28;20306;-71
2023/03/09 08:46:02;;;;;;;15.87;13.97;;;;;;;;;;5035541;28;20223;-70
2023/03/09 08:48:27;;;;;;;15.93;13.70;;;;;;;;;;5040833;28;20218;-71
2023/03/09 08:50:52;;;;;;;17.53;14.77;;;;;;;;;;5044804;28;20232;-71
2023/03/09 08:53:18;;;;;;;19.13;15.60;;;;;;;;;;5037988;28;20215;-71
2023/03/09 08:55:43;;;;;;;17.37;15.10;;;;;;;;;;5036166;28;20212;-72
2023/03/09 08:58:08;;;;;;;20.33;15.57;;;;;;;;;;5035616;28;20212;-72
2023/03/09 09:00:34;;;;;;;18.80;15.70;;;;;;;;;;5032252;28;20271;-73
2023/03/09 09:02:59;;;;;;;17.03;14.30;;;;;;;;;;5035893;28;20595;-73
2023/03/09 09:05:24;;;;;;;18.47;15.13;;;;;;;;;;5042931;28;20576;-72
2023/03/09 09:07:50;;;;;;;17.00;14.37;;;;;;;;;;5035259;28;20223;-72
2023/03/09 09:10:15;;;;;;;16.63;13.50;;;;;;;;;;5035443;28;20642;-72
2023/03/09 09:12:40;;;;;;;17.83;13.67;;;;;;;;;;5035787;28;20219;-72
2023/03/09 09:15:08;;;;;;;21.83;18.80;;;;;;;;;;5034884;28;20214;-72
2023/03/09 09:17:34;;;;;;;18.13;14.87;;;;;;;;;;5035600;28;20215;-73
2023/03/09 09:19:59;;;;;;;19.90;15.80;;;;;;;;;;5035113;28;20226;-73
2023/03/09 09:22:24;;;;;;;17.80;14.83;;;;;;;;;;5034495;28;20220;-74
2023/03/09 09:24:50;;;;;;;17.30;13.63;;;;;;;;;;5035615;28;20227;-73
2023/03/09 09:27:15;;;;;;;16.93;13.77;;;;;;;;;;5036648;28;20211;-73
2023/03/09 09:29:40;;;;;;;16.73;13.50;;;;;;;;;;5054960;28;20222;-74
2023/03/09 09:32:06;;;;;;;14.97;12.73;;;;;;;;;;5054672;28;21133;-71
2023/03/09 09:34:32;;;;;;;15.67;12.93;;;;;;;;;;5042375;28;20216;-73
2023/03/09 09:36:57;;;;;;;15.57;12.83;;;;;;;;;;5034561;28;20720;-73
2023/03/09 09:39:23;;;;;;;15.27;12.73;;;;;;;;;;5034676;28;20309;-73
2023/03/09 09:41:50;;;;;;;16.40;13.63;;;;;;;;;;5035170;28;20295;-74
2023/03/09 09:44:17;;;;;;;16.13;13.47;;;;;;;;;;5032926;28;20377;-73
2023/03/09 09:46:42;;;;;;;17.53;13.90;;;;;;;;;;5034996;28;20227;-73
2023/03/09 09:49:10;;;;;;;17.90;13.93;;;;;;;;;;5034763;28;20208;-72
2023/03/09 09:51:40;;;;;;;17.10;14.00;;;;;;;;;;5015541;28;20215;-73
2023/03/09 09:54:24;;;;;;;18.20;14.70;;;;;;;;;;5033053;28;20215;-69
2023/03/09 09:56:50;;;;;;;18.23;14.77;;;;;;;;;;5034228;28;20262;-73
2023/03/09 09:59:23;;;;;;;26.07;18.00;;;;;;;;;;5032041;28;20204;-73
2023/03/09 10:01:50;;;;;;;20.03;14.70;;;;;;;;;;5016972;28;20222;-73
2023/03/09 10:04:17;;;;;;;17.57;14.27;;;;;;;;;;5044067;28;20223;-73
2023/03/09 10:06:42;;;;;;;16.67;13.97;;;;;;;;;;5036576;28;20713;-73
2023/03/09 10:09:22;;;;;;;32.73;18.57;;;;;;;;;;5053835;28;20219;-73
2023/03/09 10:11:49;;;;;;;19.73;14.17;;;;;;;;;;5054021;28;20214;-73
2023/03/09 10:14:15;;;;;;;16.20;13.00;;;;;;;;;;5054208;28;20211;-73
2023/03/09 10:16:43;;;;;;;15.80;13.43;;;;;;;;;;5054258;28;20218;-73
2023/03/09 10:19:15;;;;;;;15.50;13.03;;;;;;;;;;5035688;28;20211;-73
2023/03/09 10:21:46;;;;;;;15.73;13.10;;;;;;;;;;5054123;28;20218;-73
2023/03/09 10:24:21;;;;;;;14.63;11.90;;;;;;;;;;5035831;28;20223;-73
2023/03/09 10:26:50;;;;;;;16.10;13.10;;;;;;;;;;5047080;28;20302;-73
2023/03/09 10:29:19;;;;;;;20.50;16.30;;;;;;;;;;5032520;28;20216;-73
2023/03/09 10:31:47;;;;;;;16.37;13.43;;;;;;;;;;5032632;28;20602;-73
2023/03/09 10:34:16;;;;;;;51.33;36.23;;;;;;;;;;5025847;28;20310;-73
2023/03/09 10:36:42;;;;;;;18.23;15.50;;;;;;;;;;5036260;28;20235;-74
2023/03/09 10:39:10;;;;;;;15.90;13.03;;;;;;;;;;5035267;28;20243;-74
2023/03/09 10:41:35;;;;;;;15.97;13.97;;;;;;;;;;5036025;28;20272;-75
2023/03/09 10:44:01;;;;;;;15.00;12.50;;;;;;;;;;5053318;28;20223;-71
2023/03/09 10:46:27;;;;;;;15.37;12.67;;;;;;;;;;5035885;28;20238;-74
2023/03/09 10:49:08;;;;;;;14.60;12.03;;;;;;;;;;5054012;28;20284;-74
2023/03/09 10:51:36;;;;;;;13.73;12.20;;;;;;;;;;5037836;28;20250;-74
2023/03/09 10:54:15;;;;;;;14.87;11.97;;;;;;;;;;5052746;28;20225;-72
2023/03/09 10:56:41;;;;;;;15.70;12.67;;;;;;;;;;5035529;28;20229;-73
2023/03/09 10:59:08;;;;;;;15.50;12.57;;;;;;;;;;5052485;28;20318;-73
2023/03/09 11:01:35;;;;;;;15.27;12.23;;;;;;;;;;5033107;28;20219;-74
2023/03/09 11:04:00;;;;;;;15.73;12.83;;;;;;;;;;5032300;28;20323;-64
2023/03/09 11:06:27;;;;;;;17.23;12.33;;;;;;;;;;5033536;28;20287;-73
2023/03/09 11:08:55;;;;;;;16.60;12.40;;;;;;;;;;5033132;28;20216;-74
2023/03/09 11:11:20;;;;;;;15.27;11.80;;;;;;;;;;5033248;28;20698;-74
2023/03/09 11:13:45;;;;;;;15.67;12.50;;;;;;;;;;5033646;28;20220;-74
2023/03/09 11:16:12;;;;;;;13.97;11.70;;;;;;;;;;5032657;28;20220;-73
2023/03/09 11:18:37;;;;;;;14.43;11.60;;;;;;;;;;5033400;28;20224;-74
2023/03/09 11:21:03;;;;;;;16.57;13.43;;;;;;;;;;5030935;28;20589;-72
2023/03/09 11:23:31;;;;;;;16.13;12.17;;;;;;;;;;5032277;28;20280;-73
2023/03/09 11:25:57;;;;;;;15.47;12.83;;;;;;;;;;5032872;28;20216;-71
2023/03/09 11:28:22;;;;;;;15.33;12.90;;;;;;;;;;5032313;28;20540;-70
2023/03/09 11:30:47;;;;;;;16.67;13.73;;;;;;;;;;5033119;28;20330;-70
2023/03/09 11:33:14;;;;;;;27.77;22.97;;;;;;;;;;5031132;28;20224;-70
2023/03/09 11:35:39;;;;;;;13.90;11.67;;;;;;;;;;5031230;28;20220;-70
2023/03/09 11:38:06;;;;;;;14.00;11.40;;;;;;;;;;5031551;28;20216;-69
2023/03/09 11:40:33;;;;;;;13.93;11.60;;;;;;;;;;5032899;28;20223;-70
2023/03/09 11:43:00;;;;;;;16.67;12.47;;;;;;;;;;5032481;28;20228;-70
2023/03/09 11:45:29;;;;;;;15.60;12.93;;;;;;;;;;5031525;28;20230;-70
2023/03/09 11:48:05;;;;;;;16.07;13.00;;;;;;;;;;5031436;28;20215;-71
2023/03/09 11:50:30;;;;;;;16.17;12.40;;;;;;;;;;5023003;28;20250;-71
2023/03/09 11:52:57;;;;;;;17.93;14.23;;;;;;;;;;5032602;28;20305;-71
2023/03/09 11:55:23;;;;;;;14.90;12.93;;;;;;;;;;5031067;28;20216;-71
2023/03/09 11:57:48;;;;;;;14.70;12.07;;;;;;;;;;5027300;28;20211;-70
2023/03/09 12:00:15;;;;;;;15.93;13.30;;;;;;;;;;5040220;28;20247;-70
2023/03/09 12:02:49;;;;;;;17.83;14.03;;;;;;;;;;5031544;28;20238;-71
2023/03/09 12:05:15;;;;;;;18.07;13.77;;;;;;;;;;5011828;28;20269;-70
2023/03/09 12:07:46;;;;;;;16.77;13.73;;;;;;;;;;5012873;28;20216;-70
2023/03/09 12:10:20;;;;;;;16.33;13.23;;;;;;;;;;5010870;28;20223;-72
2023/03/09 12:12:51;;;;;;;17.98;16.08;;;;;;;;;;5010919;28;20435;-68
2023/03/09 12:15:20;;;;;;;16.17;13.43;;;;;;;;;;5010706;28;20208;-68
2023/03/09 12:17:48;;;;;;;16.87;13.77;;;;;;;;;;5012312;28;20216;-68
2023/03/09 12:20:21;;;;;;;15.98;13.63;;;;;;;;;;5012242;28;20208;-73
2023/03/09 12:22:46;;;;;;;16.20;13.30;;;;;;;;;;5012521;28;20224;-72
2023/03/09 12:25:19;;;;;;;17.00;13.53;;;;;;;;;;5011743;28;20278;-71
2023/03/09 12:27:47;;;;;;;16.63;13.70;;;;;;;;;;5030596;28;20277;-74
2023/03/09 12:30:20;;;;;;;17.60;14.17;;;;;;;;;;5031973;28;20219;-73
2023/03/09 12:32:45;;;;;;;15.30;12.53;;;;;;;;;;5030742;28;20228;-74
2023/03/09 12:35:21;;;;;;;18.00;14.67;;;;;;;;;;5011991;28;20234;-73
2023/03/09 12:37:46;;;;;;;16.13;12.67;;;;;;;;;;5024250;28;20241;-74
2023/03/09 12:40:15;;;;;;;15.57;12.33;;;;;;;;;;5031609;28;20690;-73
2023/03/09 12:42:40;;;;;;;16.90;13.90;;;;;;;;;;5032065;28;20691;-73
2023/03/09 12:45:11;;;;;;;15.03;12.00;;;;;;;;;;5030477;28;20227;-71
2023/03/09 12:47:40;;;;;;;15.47;12.03;;;;;;;;;;5031895;28;20219;-72
2023/03/09 12:50:22;;;;;;;15.20;12.33;;;;;;;;;;5031403;28;20238;-71
2023/03/09 12:52:59;;;;;;;14.40;11.53;;;;;;;;;;5031976;28;20698;-73
2023/03/09 12:55:40;;;;;;;16.93;12.67;;;;;;;;;;5039331;28;20316;-73
2023/03/09 12:58:19;;;;;;;17.73;14.17;;;;;;;;;;5051602;28;20367;-72
2023/03/09 13:00:51;;;;;;;17.77;12.87;;;;;;;;;;5034732;28;20270;-73
2023/03/09 13:03:17;;;;;;;13.97;11.13;;;;;;;;;;5030959;28;20227;-73
2023/03/09 13:05:43;;;;;;;16.17;12.13;;;;;;;;;;5030831;28;20254;-73
2023/03/09 13:08:20;;;;;;;16.77;12.33;;;;;;;;;;5031169;28;20219;-73
2023/03/09 13:10:46;;;;;;;16.10;11.67;;;;;;;;;;5030556;28;20579;-73
2023/03/09 13:13:31;;;;;;;15.23;11.97;;;;;;;;;;5031519;28;20216;-72
2023/03/09 13:16:19;;;;;;;15.83;11.93;;;;;;;;;;5030765;28;20216;-72
2023/03/09 13:18:45;;;;;;;15.57;12.40;;;;;;;;;;5031199;28;20243;-73
2023/03/09 13:21:28;;;;;;;19.27;14.17;;;;;;;;;;5031038;28;20773;-72
2023/03/09 13:23:54;;;;;;;22.93;16.30;;;;;;;;;;5031479;28;20220;-72
2023/03/09 13:26:19;;;;;;;18.97;13.53;;;;;;;;;;5033378;28;20574;-72
2023/03/09 13:28:47;;;;;;;16.50;12.80;;;;;;;;;;5034934;28;20240;-72
2023/03/09 13:31:21;;;;;;;22.10;14.90;;;;;;;;;;5033551;28;20216;-72
2023/03/09 13:33:46;;;;;;;32.03;21.07;;;;;;;;;;5033687;28;20235;-72
2023/03/09 13:36:11;;;;;;;21.87;15.67;;;;;;;;;;5034348;28;20341;-72
2023/03/09 13:38:37;;;;;;;20.37;14.23;;;;;;;;;;5035180;28;20725;-72
2023/03/09 13:41:03;;;;;;;17.43;13.27;;;;;;;;;;5034731;28;20679;-71
2023/03/09 13:43:29;;;;;;;18.43;13.40;;;;;;;;;;5035274;28;20314;-71
2023/03/09 13:46:02;;;;;;;19.07;14.00;;;;;;;;;;5017276;28;20216;-72
2023/03/09 13:48:27;;;;;;;17.37;12.93;;;;;;;;;;5054663;28;20645;-72
2023/03/09 13:50:53;;;;;;;17.00;12.67;;;;;;;;;;5052868;28;20701;-72
2023/03/09 13:53:23;;;;;;;19.00;12.93;;;;;;;;;;5054195;28;20211;-71
2023/03/09 13:55:53;;;;;;;16.90;12.37;;;;;;;;;;5036621;28;20227;-71
2023/03/09 13:58:19;;;;;;;17.43;12.10;;;;;;;;;;5054253;28;20207;-71
2023/03/09 14:00:55;;;;;;;24.03;16.43;;;;;;;;;;5038004;28;20725;-71
2023/03/09 14:03:21;;;;;;;40.23;23.63;;;;;;;;;;5044138;28;20235;-70
2023/03/09 14:05:53;;;;;;;26.10;16.57;;;;;;;;;;5036989;28;20233;-70
2023/03/09 14:08:19;;;;;;;27.73;17.93;;;;;;;;;;5036283;28;20215;-70
2023/03/09 14:10:45;;;;;;;20.30;13.60;;;;;;;;;;5036425;28;20226;-70
2023/03/09 14:13:16;;;;;;;26.93;16.83;;;;;;;;;;5054024;28;20238;-70